Time,TemperatureF,DewpointF,PressureIn,WindDirection,WindDirectionDegrees,WindSpeedMPH,WindSpeedGustMPH,Humidity,HourlyPrecipIn,Conditions,Clouds,dailyrainin,SolarRadiationWatts/m^2,SoftwareType,DateUTC
2013-04-07 00:02:00,42.0,34.0,29.95,SW,214,8.0,12.0,72,-99.99,,,-99.99,0.000000,,2013-04-07 06:02:00,
2013-04-07 00:12:00,42.0,34.0,29.95,SW,215,5.0,8.0,72,-99.99,,,-99.99,-0.200000,,2013-04-07 06:12:00,
2013-04-07 00:21:00,42.0,33.0,29.94,SSW,209,6.0,9.0,72,-99.99,,,-99.99,-0.200000,,2013-04-07 06:21:00,
2013-04-07 00:32:00,41.0,33.0,29.94,SSW,209,5.0,9.0,73,-99.99,,,-99.99,0.000000,,2013-04-07 06:32:00,
2013-04-07 00:42:00,41.0,33.0,29.94,South,188,7.0,11.0,73,-99.99,,,-99.99,-0.200000,,2013-04-07 06:42:00,
2013-04-07 00:52:00,40.0,33.0,29.93,SSW,200,5.0,8.0,73,-99.99,,,-99.99,-0.100000,,2013-04-07 06:52:00,
2013-04-07 01:02:00,40.0,32.0,29.93,SSW,201,6.0,9.0,73,-99.99,,,-99.99,-0.100000,,2013-04-07 07:02:00,
2013-04-07 01:11:00,40.0,32.0,29.93,SSW,206,6.0,10.0,72,-99.99,,,-99.99,0.000000,,2013-04-07 07:11:00,
2013-04-07 01:21:00,40.0,32.0,29.92,SSW,202,7.0,11.0,71,-99.99,,,-99.99,-0.300000,,2013-04-07 07:21:00,
2013-04-07 01:32:00,40.0,32.0,29.92,SSW,198,6.0,10.0,70,-99.99,,,-99.99,-0.500000,,2013-04-07 07:32:00,
2013-04-07 01:41:00,41.0,32.0,29.92,SSW,205,5.0,8.0,69,-99.99,,,-99.99,-0.300000,,2013-04-07 07:41:00,
2013-04-07 01:51:00,41.0,31.0,29.92,South,189,6.0,9.0,68,-99.99,,,-99.99,-0.100000,,2013-04-07 07:51:00,
2013-04-07 02:02:00,40.0,31.0,29.92,South,189,6.0,10.0,69,-99.99,,,-99.99,-0.200000,,2013-04-07 08:02:00,
2013-04-07 02:11:00,41.0,31.0,29.91,South,187,9.0,13.0,67,-99.99,,,-99.99,-0.100000,,2013-04-07 08:11:00,
2013-04-07 02:21:00,41.0,31.0,29.91,South,180,9.0,13.0,68,-99.99,,,-99.99,-0.200000,,2013-04-07 08:21:00,
2013-04-07 02:32:00,41.0,32.0,29.90,South,170,10.0,16.0,68,-99.99,,,-99.99,0.000000,,2013-04-07 08:32:00,
2013-04-07 02:42:00,41.0,32.0,29.90,South,169,10.0,15.0,69,-99.99,,,-99.99,0.000000,,2013-04-07 08:42:00,
2013-04-07 02:51:00,41.0,32.0,29.90,SSE,163,11.0,17.0,70,-99.99,,,-99.99,0.000000,,2013-04-07 08:51:00,
2013-04-07 03:02:00,41.0,33.0,29.89,SSE,159,11.0,15.0,72,-99.99,,,-99.99,0.200000,,2013-04-07 09:02:00,
2013-04-07 03:11:00,41.0,33.0,29.89,SSE,157,11.0,14.0,71,-99.99,,,-99.99,0.100000,,2013-04-07 09:11:00,
2013-04-07 03:21:00,41.0,33.0,29.88,SSE,158,11.0,15.0,71,-99.99,,,-99.99,-0.100000,,2013-04-07 09:21:00,
2013-04-07 03:33:00,41.0,33.0,29.88,SSE,164,9.0,14.0,72,-99.99,,,-99.99,-0.100000,,2013-04-07 09:33:00,
2013-04-07 03:42:00,42.0,33.0,29.88,West,261,4.0,5.0,70,-99.99,,,-99.99,-0.100000,,2013-04-07 09:42:00,
2013-04-07 03:52:00,42.0,33.0,29.87,South,174,12.0,15.0,68,-99.99,,,-99.99,0.000000,,2013-04-07 09:52:00,
2013-04-07 04:02:00,43.0,32.0,29.87,SSW,201,6.0,9.0,66,-99.99,,,-99.99,0.000000,,2013-04-07 10:02:00,
2013-04-07 04:12:00,42.0,32.0,29.87,West,266,2.0,3.0,68,-99.99,,,-99.99,-0.100000,,2013-04-07 10:12:00,
2013-04-07 04:22:00,39.0,32.0,29.87,WNW,287,4.0,4.0,74,-99.99,,,-99.99,0.200000,,2013-04-07 10:22:00,
2013-04-07 04:32:00,39.0,32.0,29.87,WSW,246,2.0,4.0,74,-99.99,,,-99.99,0.100000,,2013-04-07 10:32:00,
2013-04-07 04:42:00,39.0,32.0,29.86,WNW,291,3.0,4.0,75,-99.99,,,-99.99,-0.100000,,2013-04-07 10:42:00,
2013-04-07 04:52:00,39.0,32.0,29.86,WNW,285,3.0,5.0,77,-99.99,,,-99.99,-0.100000,,2013-04-07 10:52:00,
2013-04-07 05:02:00,39.0,33.0,29.86,WSW,244,2.0,4.0,78,-99.99,,,-99.99,0.000000,,2013-04-07 11:02:00,
2013-04-07 05:11:00,39.0,33.0,29.86,WNW,289,3.0,5.0,78,-99.99,,,-99.99,0.200000,,2013-04-07 11:11:00,
2013-04-07 05:21:00,39.0,33.0,29.86,SSW,211,2.0,3.0,79,-99.99,,,-99.99,0.000000,,2013-04-07 11:21:00,
2013-04-07 05:32:00,39.0,34.0,29.85,ENE,69,2.0,3.0,81,-99.99,,,-99.99,-0.100000,,2013-04-07 11:32:00,
2013-04-07 05:42:00,38.0,34.0,29.85,NE,50,3.0,4.0,84,-99.99,,,-99.99,0.100000,,2013-04-07 11:42:00,
2013-04-07 05:52:00,38.0,34.0,29.85,NE,46,4.0,5.0,85,-99.99,,,-99.99,-0.100000,,2013-04-07 11:52:00,
2013-04-07 06:02:00,40.0,34.0,29.85,ESE,113,5.0,16.0,81,-99.99,,,-99.99,-0.100000,,2013-04-07 12:02:00,
2013-04-07 06:12:00,41.0,35.0,29.84,SSE,159,6.0,11.0,77,-99.99,,,-99.99,-0.100000,,2013-04-07 12:12:00,
2013-04-07 06:21:00,42.0,35.0,29.84,SSE,163,11.0,15.0,75,-99.99,,,-99.99,0.100000,,2013-04-07 12:21:00,
2013-04-07 06:32:00,41.0,35.0,29.84,SW,223,6.0,10.0,76,-99.99,,,-99.99,0.100000,,2013-04-07 12:32:00,
2013-04-07 06:42:00,41.0,34.0,29.84,WSW,245,6.0,10.0,75,-99.99,,,-99.99,0.100000,,2013-04-07 12:42:00,
2013-04-07 06:52:00,40.0,34.0,29.84,WSW,244,6.0,9.0,78,-99.99,,,-99.99,-0.100000,,2013-04-07 12:52:00,
2013-04-07 07:02:00,41.0,35.0,29.84,SW,218,10.0,15.0,78,-99.99,,,-99.99,0.000000,,2013-04-07 13:02:00,
2013-04-07 07:11:00,41.0,36.0,29.84,SSW,206,11.0,14.0,80,-99.99,,,-99.99,0.300000,,2013-04-07 13:11:00,
2013-04-07 07:21:00,42.0,36.0,29.84,SSW,211,13.0,19.0,80,-99.99,,,-99.99,1.500000,,2013-04-07 13:21:00,
2013-04-07 07:32:00,42.0,37.0,29.84,SSW,208,14.0,24.0,81,-99.99,,,-99.99,2.800000,,2013-04-07 13:32:00,
2013-04-07 07:41:00,42.0,37.0,29.84,SW,214,14.0,22.0,80,-99.99,,,-99.99,10.800000,,2013-04-07 13:41:00,
2013-04-07 07:52:00,42.0,36.0,29.85,SSW,213,16.0,23.0,79,-99.99,,,-99.99,13.700000,,2013-04-07 13:52:00,
2013-04-07 08:02:00,42.0,36.0,29.85,SW,216,15.0,20.0,81,-99.99,,,-99.99,23.700001,,2013-04-07 14:02:00,
2013-04-07 08:11:00,42.0,37.0,29.84,SW,214,11.0,17.0,82,-99.99,,,-99.99,71.699997,,2013-04-07 14:11:00,
2013-04-07 08:21:00,42.0,37.0,29.84,SSW,213,11.0,16.0,82,-99.99,,,-99.99,74.800003,,2013-04-07 14:21:00,
2013-04-07 08:32:00,42.0,37.0,29.84,SSW,212,12.0,17.0,82,-99.99,,,-99.99,45.400002,,2013-04-07 14:32:00,
2013-04-07 08:42:00,42.0,37.0,29.84,SSW,207,11.0,16.0,81,-99.99,,,-99.99,67.599998,,2013-04-07 14:42:00,
2013-04-07 08:52:00,42.0,37.0,29.84,SSW,211,13.0,19.0,80,-99.99,,,-99.99,67.400002,,2013-04-07 14:52:00,
2013-04-07 09:02:00,43.0,37.0,29.84,SSW,211,12.0,19.0,79,-99.99,,,-99.99,55.299999,,2013-04-07 15:02:00,
2013-04-07 09:11:00,43.0,37.0,29.84,SSW,212,12.0,20.0,78,-99.99,,,-99.99,64.300003,,2013-04-07 15:11:00,
2013-04-07 09:21:00,43.0,37.0,29.84,SW,217,15.0,22.0,76,-99.99,,,-99.99,113.599998,,2013-04-07 15:21:00,
2013-04-07 09:33:00,44.0,36.0,29.84,SW,219,15.0,23.0,74,-99.99,,,-99.99,203.399994,,2013-04-07 15:33:00,
2013-04-07 09:43:00,44.0,37.0,29.84,SW,223,17.0,26.0,74,-99.99,,,-99.99,261.799988,,2013-04-07 15:43:00,
2013-04-07 09:53:00,45.0,37.0,29.84,SW,225,17.0,25.0,73,-99.99,,,-99.99,172.899994,,2013-04-07 15:53:00,
2013-04-07 10:03:00,44.0,37.0,29.84,SW,228,18.0,25.0,73,-99.99,,,-99.99,178.300003,,2013-04-07 16:03:00,
2013-04-07 10:12:00,44.0,36.0,29.84,SW,226,18.0,26.0,74,-99.99,,,-99.99,84.599998,,2013-04-07 16:12:00,
2013-04-07 10:23:00,44.0,37.0,29.84,SW,224,17.0,25.0,75,-99.99,,,-99.99,150.699997,,2013-04-07 16:23:00,
2013-04-07 10:32:00,44.0,37.0,29.84,SW,228,19.0,32.0,75,-99.99,,,-99.99,208.000000,,2013-04-07 16:32:00,
2013-04-07 10:42:00,44.0,37.0,29.84,SW,217,19.0,29.0,76,-99.99,,,-99.99,277.299988,,2013-04-07 16:42:00,
2013-04-07 10:52:00,44.0,38.0,29.84,SW,214,19.0,29.0,77,-99.99,,,-99.99,354.500000,,2013-04-07 16:52:00,
2013-04-07 11:11:00,45.0,38.0,29.83,SSW,211,20.0,29.0,76,-99.99,,,-99.99,707.000000,,2013-04-07 17:11:00,
2013-04-07 11:22:00,45.0,37.0,29.83,SSW,206,19.0,28.0,72,-99.99,,,-99.99,390.700012,,2013-04-07 17:22:00,
2013-04-07 11:32:00,45.0,37.0,29.83,SSW,210,18.0,29.0,71,-99.99,,,-99.99,353.399994,,2013-04-07 17:32:00,
2013-04-07 11:42:00,46.0,37.0,29.83,SSW,211,17.0,26.0,70,-99.99,,,-99.99,591.299988,,2013-04-07 17:42:00,
2013-04-07 11:52:00,47.0,37.0,29.82,SW,217,19.0,28.0,67,-99.99,,,-99.99,662.099976,,2013-04-07 17:52:00,
2013-04-07 12:02:00,47.0,37.0,29.82,SW,217,18.0,27.0,67,-99.99,,,-99.99,620.400024,,2013-04-07 18:02:00,
2013-04-07 12:12:00,47.0,37.0,29.82,SW,218,19.0,32.0,68,-99.99,,,-99.99,564.599976,,2013-04-07 18:12:00,
2013-04-07 12:21:00,47.0,37.0,29.81,SSW,211,19.0,28.0,68,-99.99,,,-99.99,451.500000,,2013-04-07 18:21:00,
2013-04-07 12:32:00,48.0,39.0,29.80,SSW,213,17.0,24.0,70,-99.99,,,-99.99,695.200012,,2013-04-07 18:32:00,
2013-04-07 12:42:00,48.0,38.0,29.80,SSW,211,19.0,29.0,67,-99.99,,,-99.99,564.500000,,2013-04-07 18:42:00,
2013-04-07 12:51:00,47.0,37.0,29.79,SSW,212,18.0,27.0,68,-99.99,,,-99.99,576.900024,,2013-04-07 18:51:00,
2013-04-07 13:02:00,50.0,38.0,29.78,SW,216,18.0,29.0,63,-99.99,,,-99.99,1071.000000,,2013-04-07 19:02:00,
2013-04-07 13:11:00,49.0,37.0,29.78,SSW,210,22.0,34.0,62,-99.99,,,-99.99,224.000000,,2013-04-07 19:11:00,
2013-04-07 13:21:00,45.0,36.0,29.78,SSW,211,19.0,31.0,70,-99.99,,,-99.99,181.000000,,2013-04-07 19:21:00,
2013-04-07 13:32:00,45.0,37.0,29.78,SW,221,14.0,28.0,73,-99.99,,,-99.99,671.599976,,2013-04-07 19:32:00,
2013-04-07 13:42:00,47.0,37.0,29.76,SSW,211,17.0,26.0,66,-99.99,,,-99.99,230.399994,,2013-04-07 19:42:00,
2013-04-07 13:52:00,46.0,38.0,29.77,SW,221,17.0,26.0,71,-99.99,,,-99.99,86.300003,,2013-04-07 19:52:00,
2013-04-07 14:02:00,42.0,37.0,29.78,SW,224,18.0,32.0,81,-99.99,,,-99.99,140.800003,,2013-04-07 20:02:00,
2013-04-07 14:11:00,43.0,39.0,29.77,SW,217,12.0,17.0,85,-99.99,,,-99.99,868.000000,,2013-04-07 20:11:00,
2013-04-07 14:21:00,47.0,42.0,29.75,SSW,202,12.0,17.0,82,-99.99,,,-99.99,946.000000,,2013-04-07 20:21:00,
2013-04-07 14:32:00,48.0,40.0,29.74,SSW,201,16.0,24.0,73,-99.99,,,-99.99,771.900024,,2013-04-07 20:32:00,
2013-04-07 14:42:00,48.0,38.0,29.73,SSW,194,18.0,24.0,67,-99.99,,,-99.99,296.299988,,2013-04-07 20:42:00,
2013-04-07 14:52:00,46.0,38.0,29.74,SSW,194,18.0,24.0,72,-99.99,,,-99.99,101.699997,,2013-04-07 20:52:00,
2013-04-07 15:02:00,46.0,41.0,29.74,SSW,194,18.0,24.0,80,-99.99,,,-99.99,923.000000,,2013-04-07 21:02:00,
2013-04-07 15:11:00,47.0,40.0,29.73,South,191,18.0,26.0,77,-99.99,,,-99.99,571.099976,,2013-04-07 21:11:00,
2013-04-07 15:21:00,47.0,39.0,29.72,SSW,199,18.0,32.0,74,-99.99,,,-99.99,417.600006,,2013-04-07 21:21:00,
2013-04-07 15:33:00,48.0,40.0,29.72,SSW,197,18.0,28.0,73,-99.99,,,-99.99,684.700012,,2013-04-07 21:33:00,
2013-04-07 15:42:00,49.0,40.0,29.72,SSW,194,21.0,27.0,68,-99.99,,,-99.99,610.599976,,2013-04-07 21:42:00,
2013-04-07 15:52:00,50.0,40.0,29.71,SSW,205,12.0,18.0,69,-99.99,,,-99.99,800.000000,,2013-04-07 21:52:00,
2013-04-07 16:02:00,50.0,39.0,29.71,SSW,201,15.0,22.0,65,-99.99,,,-99.99,269.299988,,2013-04-07 22:02:00,
2013-04-07 16:12:00,51.0,38.0,29.70,SSW,208,15.0,20.0,61,-99.99,,,-99.99,245.000000,,2013-04-07 22:12:00,
2013-04-07 16:22:00,51.0,38.0,29.69,SW,223,13.0,21.0,59,-99.99,,,-99.99,204.100006,,2013-04-07 22:22:00,
2013-04-07 16:33:00,52.0,29.0,29.69,WSW,241,19.0,33.0,41,-99.99,,,-99.99,246.500000,,2013-04-07 22:33:00,
2013-04-07 16:42:00,52.0,29.0,29.69,SW,236,16.0,26.0,41,-99.99,,,-99.99,172.399994,,2013-04-07 22:42:00,
2013-04-07 16:52:00,52.0,30.0,29.69,WSW,251,13.0,27.0,43,-99.99,,,-99.99,147.699997,,2013-04-07 22:52:00,
2013-04-07 17:02:00,52.0,30.0,29.69,WSW,248,15.0,23.0,43,-99.99,,,-99.99,189.699997,,2013-04-07 23:02:00,
2013-04-07 17:12:00,52.0,27.0,29.69,WSW,238,22.0,34.0,38,-99.99,,,-99.99,187.800003,,2013-04-07 23:12:00,
2013-04-07 17:21:00,50.0,31.0,29.70,SW,234,24.0,38.0,48,-99.99,,,-99.99,151.600006,,2013-04-07 23:21:00,
2013-04-07 17:32:00,49.0,31.0,29.71,WSW,239,17.0,26.0,50,-99.99,,,-99.99,107.699997,,2013-04-07 23:32:00,
2013-04-07 17:42:00,49.0,32.0,29.72,SW,229,19.0,28.0,52,-99.99,,,-99.99,159.100006,,2013-04-07 23:42:00,
2013-04-07 17:52:00,48.0,32.0,29.72,SW,231,19.0,31.0,55,-99.99,,,-99.99,115.900002,,2013-04-07 23:52:00,
2013-04-07 18:02:00,47.0,32.0,29.72,SW,220,16.0,28.0,56,-99.99,,,-99.99,171.000000,,2013-04-08 00:02:00,
2013-04-07 18:11:00,47.0,32.0,29.72,SW,216,18.0,28.0,57,-99.99,,,-99.99,96.000000,,2013-04-08 00:11:00,
2013-04-07 18:22:00,47.0,32.0,29.72,SW,221,18.0,32.0,57,-99.99,,,-99.99,59.500000,,2013-04-08 00:22:00,
2013-04-07 18:32:00,46.0,33.0,29.71,SW,216,15.0,24.0,60,-99.99,,,-99.99,76.800003,,2013-04-08 00:32:00,
2013-04-07 18:41:00,46.0,34.0,29.71,SSW,210,16.0,26.0,62,-99.99,,,-99.99,166.399994,,2013-04-08 00:41:00,
2013-04-07 18:51:00,46.0,34.0,29.71,SSW,203,15.0,22.0,63,-99.99,,,-99.99,307.899994,,2013-04-08 00:51:00,
2013-04-07 19:02:00,47.0,35.0,29.71,SSW,209,13.0,23.0,63,-99.99,,,-99.99,173.199997,,2013-04-08 01:02:00,
2013-04-07 19:22:00,46.0,34.0,29.72,SSW,207,18.0,29.0,63,-99.99,,,-99.99,46.900002,,2013-04-08 01:22:00,
2013-04-07 19:32:00,45.0,34.0,29.72,SSW,205,15.0,24.0,64,-99.99,,,-99.99,21.100000,,2013-04-08 01:32:00,
2013-04-07 19:42:00,45.0,35.0,29.71,SSW,209,15.0,23.0,67,-99.99,,,-99.99,29.600000,,2013-04-08 01:42:00,
2013-04-07 19:52:00,45.0,35.0,29.72,SW,231,11.0,18.0,68,-99.99,,,-99.99,23.400000,,2013-04-08 01:52:00,
2013-04-07 20:02:00,44.0,34.0,29.71,SW,224,11.0,15.0,69,-99.99,,,-99.99,11.800000,,2013-04-08 02:02:00,
2013-04-07 20:11:00,44.0,34.0,29.71,SW,219,11.0,16.0,69,-99.99,,,-99.99,7.000000,,2013-04-08 02:11:00,
2013-04-07 20:21:00,43.0,34.0,29.71,SSW,208,10.0,15.0,69,-99.99,,,-99.99,1.600000,,2013-04-08 02:21:00,
2013-04-07 20:32:00,43.0,34.0,29.71,SSW,204,12.0,17.0,70,-99.99,,,-99.99,0.100000,,2013-04-08 02:32:00,
2013-04-07 20:42:00,43.0,35.0,29.71,SSW,196,13.0,18.0,72,-99.99,,,-99.99,0.000000,,2013-04-08 02:42:00,
2013-04-07 20:52:00,43.0,34.0,29.70,SSW,205,11.0,16.0,71,-99.99,,,-99.99,0.000000,,2013-04-08 02:52:00,
2013-04-07 21:03:00,43.0,34.0,29.70,SSW,210,14.0,21.0,71,-99.99,,,-99.99,0.000000,,2013-04-08 03:03:00,
2013-04-07 21:11:00,42.0,34.0,29.70,SW,214,13.0,20.0,71,-99.99,,,-99.99,-0.200000,,2013-04-08 03:11:00,
2013-04-07 21:22:00,41.0,34.0,29.70,SSW,203,15.0,21.0,75,-99.99,,,-99.99,-0.100000,,2013-04-08 03:22:00,
2013-04-07 21:33:00,40.0,34.0,29.69,SSW,199,15.0,20.0,77,-99.99,,,-99.99,0.100000,,2013-04-08 03:33:00,
2013-04-07 21:42:00,40.0,34.0,29.70,SSW,200,15.0,21.0,78,-99.99,,,-99.99,-0.100000,,2013-04-08 03:42:00,
2013-04-07 21:53:00,40.0,34.0,29.70,SSW,195,15.0,21.0,77,-99.99,,,-99.99,0.000000,,2013-04-08 03:53:00,
2013-04-07 22:02:00,40.0,34.0,29.70,SSW,195,13.0,19.0,79,-99.99,,,-99.99,0.000000,,2013-04-08 04:02:00,
2013-04-07 22:12:00,40.0,34.0,29.70,South,189,12.0,17.0,79,-99.99,,,-99.99,-0.200000,,2013-04-08 04:12:00,
2013-04-07 22:22:00,40.0,34.0,29.70,SSW,206,6.0,10.0,79,-99.99,,,-99.99,-0.200000,,2013-04-08 04:22:00,
2013-04-07 22:32:00,40.0,33.0,29.70,SSW,210,7.0,11.0,78,-99.99,,,-99.99,0.300000,,2013-04-08 04:32:00,
2013-04-07 22:43:00,40.0,33.0,29.70,SSW,202,8.0,12.0,76,-99.99,,,-99.99,0.000000,,2013-04-08 04:43:00,
2013-04-07 22:52:00,40.0,33.0,29.70,SW,215,8.0,12.0,75,-99.99,,,-99.99,-0.100000,,2013-04-08 04:52:00,
2013-04-07 23:02:00,40.0,33.0,29.70,SW,214,9.0,15.0,75,-99.99,,,-99.99,-0.100000,,2013-04-08 05:02:00,
2013-04-07 23:11:00,40.0,33.0,29.69,SSW,210,7.0,12.0,77,-99.99,,,-99.99,-0.200000,,2013-04-08 05:11:00,
2013-04-07 23:21:00,40.0,33.0,29.69,SSW,210,7.0,12.0,77,-99.99,,,-99.99,-0.200000,,2013-04-08 05:21:00,
2013-04-07 23:32:00,40.0,33.0,29.68,SW,229,10.0,14.0,77,-99.99,,,-99.99,0.000000,,2013-04-08 05:32:00,
2013-04-07 23:42:00,40.0,33.0,29.68,SW,225,10.0,14.0,76,-99.99,,,-99.99,0.000000,,2013-04-08 05:42:00,
2013-04-07 23:51:00,40.0,33.0,29.68,SW,226,12.0,16.0,74,-99.99,,,-99.99,0.000000,,2013-04-08 05:51:00,